sensor_id;sensor_type;location;lat;lon;timestamp;P1;durP1;ratioP1;P2;durP2;ratioP2
23129;SDS011;11734;51.046;13.778;2022-08-19T00:02:08;10.57;;;9.37;;
23129;SDS011;11734;51.046;13.778;2022-08-19T00:04:35;10.20;;;9.20;;
23129;SDS011;11734;51.046;13.778;2022-08-19T00:07:03;10.57;;;9.47;;
23129;SDS011;11734;51.046;13.778;2022-08-19T00:09:33;11.37;;;10.17;;
23129;SDS011;11734;51.046;13.778;2022-08-19T00:12:00;11.17;;;10.07;;
23129;SDS011;11734;51.046;13.778;2022-08-19T00:14:28;11.07;;;9.97;;
23129;SDS011;11734;51.046;13.778;2022-08-19T00:16:58;11.27;;;10.07;;
23129;SDS011;11734;51.046;13.778;2022-08-19T00:19:26;10.43;;;9.43;;
23129;SDS011;11734;51.046;13.778;2022-08-19T00:21:54;11.50;;;9.97;;
23129;SDS011;11734;51.046;13.778;2022-08-19T00:24:22;11.57;;;10.33;;
23129;SDS011;11734;51.046;13.778;2022-08-19T00:26:50;11.63;;;10.43;;
23129;SDS011;11734;51.046;13.778;2022-08-19T00:29:20;12.00;;;10.70;;
23129;SDS011;11734;51.046;13.778;2022-08-19T00:31:49;12.43;;;11.13;;
23129;SDS011;11734;51.046;13.778;2022-08-19T00:34:20;11.37;;;10.17;;
23129;SDS011;11734;51.046;13.778;2022-08-19T00:36:48;12.30;;;10.97;;
23129;SDS011;11734;51.046;13.778;2022-08-19T00:39:16;11.83;;;10.63;;
23129;SDS011;11734;51.046;13.778;2022-08-19T00:41:44;12.13;;;10.80;;
23129;SDS011;11734;51.046;13.778;2022-08-19T00:44:20;12.53;;;11.23;;
23129;SDS011;11734;51.046;13.778;2022-08-19T00:46:53;11.87;;;10.67;;
23129;SDS011;11734;51.046;13.778;2022-08-19T00:52:13;13.20;;;11.30;;
23129;SDS011;11734;51.046;13.778;2022-08-19T00:54:45;12.10;;;10.77;;
23129;SDS011;11734;51.046;13.778;2022-08-19T00:57:18;12.67;;;11.37;;
23129;SDS011;11734;51.046;13.778;2022-08-19T00:59:51;13.07;;;11.50;;
23129;SDS011;11734;51.046;13.778;2022-08-19T01:02:28;12.67;;;11.37;;
23129;SDS011;11734;51.046;13.778;2022-08-19T01:04:57;13.30;;;11.27;;
23129;SDS011;11734;51.046;13.778;2022-08-19T01:07:29;13.20;;;11.80;;
23129;SDS011;11734;51.046;13.778;2022-08-19T01:10:03;12.33;;;11.03;;
23129;SDS011;11734;51.046;13.778;2022-08-19T01:12:34;11.60;;;10.20;;
23129;SDS011;11734;51.046;13.778;2022-08-19T01:15:04;11.40;;;10.23;;
23129;SDS011;11734;51.046;13.778;2022-08-19T01:17:34;12.60;;;11.30;;
23129;SDS011;11734;51.046;13.778;2022-08-19T01:20:06;13.23;;;11.93;;
23129;SDS011;11734;51.046;13.778;2022-08-19T01:22:38;13.37;;;11.97;;
23129;SDS011;11734;51.046;13.778;2022-08-19T01:25:12;13.93;;;12.47;;
23129;SDS011;11734;51.046;13.778;2022-08-19T01:27:43;13.27;;;11.87;;
23129;SDS011;11734;51.046;13.778;2022-08-19T01:30:26;14.70;;;12.90;;
23129;SDS011;11734;51.046;13.778;2022-08-19T01:32:57;14.20;;;12.10;;
23129;SDS011;11734;51.046;13.778;2022-08-19T01:35:27;12.73;;;11.43;;
23129;SDS011;11734;51.046;13.778;2022-08-19T01:37:57;14.47;;;12.93;;
23129;SDS011;11734;51.046;13.778;2022-08-19T01:40:29;13.67;;;12.27;;
23129;SDS011;11734;51.046;13.778;2022-08-19T01:42:59;13.80;;;12.37;;
23129;SDS011;11734;51.046;13.778;2022-08-19T01:45:30;13.53;;;11.90;;
23129;SDS011;11734;51.046;13.778;2022-08-19T01:48:00;13.90;;;12.27;;
23129;SDS011;11734;51.046;13.778;2022-08-19T01:50:28;13.80;;;12.40;;
23129;SDS011;11734;51.046;13.778;2022-08-19T01:52:57;15.53;;;13.00;;
23129;SDS011;11734;51.046;13.778;2022-08-19T01:55:33;13.27;;;11.87;;
23129;SDS011;11734;51.046;13.778;2022-08-19T01:58:07;13.00;;;11.53;;
23129;SDS011;11734;51.046;13.778;2022-08-19T02:00:38;13.90;;;12.50;;
23129;SDS011;11734;51.046;13.778;2022-08-19T02:03:05;14.07;;;12.77;;
23129;SDS011;11734;51.046;13.778;2022-08-19T02:05:35;13.57;;;11.87;;
23129;SDS011;11734;51.046;13.778;2022-08-19T02:08:03;13.93;;;12.43;;
23129;SDS011;11734;51.046;13.778;2022-08-19T02:10:31;14.03;;;12.50;;
23129;SDS011;11734;51.046;13.778;2022-08-19T02:12:59;13.97;;;12.10;;
23129;SDS011;11734;51.046;13.778;2022-08-19T02:15:26;13.90;;;12.37;;
23129;SDS011;11734;51.046;13.778;2022-08-19T02:17:54;12.90;;;11.47;;
23129;SDS011;11734;51.046;13.778;2022-08-19T02:20:21;14.13;;;12.20;;
23129;SDS011;11734;51.046;13.778;2022-08-19T02:22:49;15.00;;;13.37;;
23129;SDS011;11734;51.046;13.778;2022-08-19T02:25:16;14.57;;;13.13;;
23129;SDS011;11734;51.046;13.778;2022-08-19T02:27:43;13.43;;;12.10;;
23129;SDS011;11734;51.046;13.778;2022-08-19T02:30:12;13.87;;;11.63;;
23129;SDS011;11734;51.046;13.778;2022-08-19T02:32:42;16.40;;;13.17;;
23129;SDS011;11734;51.046;13.778;2022-08-19T02:35:11;13.80;;;12.17;;
23129;SDS011;11734;51.046;13.778;2022-08-19T02:37:41;13.53;;;12.13;;
23129;SDS011;11734;51.046;13.778;2022-08-19T02:40:28;12.50;;;11.13;;
23129;SDS011;11734;51.046;13.778;2022-08-19T02:43:01;14.73;;;13.10;;
23129;SDS011;11734;51.046;13.778;2022-08-19T02:45:36;13.87;;;12.43;;
23129;SDS011;11734;51.046;13.778;2022-08-19T02:48:08;15.00;;;12.30;;
23129;SDS011;11734;51.046;13.778;2022-08-19T02:50:47;14.10;;;12.60;;
23129;SDS011;11734;51.046;13.778;2022-08-19T02:53:20;13.30;;;11.90;;
23129;SDS011;11734;51.046;13.778;2022-08-19T02:55:50;15.17;;;12.47;;
23129;SDS011;11734;51.046;13.778;2022-08-19T02:58:19;13.47;;;12.07;;
23129;SDS011;11734;51.046;13.778;2022-08-19T03:00:49;13.60;;;12.13;;
23129;SDS011;11734;51.046;13.778;2022-08-19T03:03:19;13.63;;;12.33;;
23129;SDS011;11734;51.046;13.778;2022-08-19T03:05:47;13.73;;;12.33;;
23129;SDS011;11734;51.046;13.778;2022-08-19T03:08:23;14.27;;;12.83;;
23129;SDS011;11734;51.046;13.778;2022-08-19T03:10:51;14.90;;;13.30;;
23129;SDS011;11734;51.046;13.778;2022-08-19T03:13:19;13.50;;;11.83;;
23129;SDS011;11734;51.046;13.778;2022-08-19T03:15:47;13.63;;;12.23;;
23129;SDS011;11734;51.046;13.778;2022-08-19T03:18:14;13.30;;;11.90;;
23129;SDS011;11734;51.046;13.778;2022-08-19T03:20:51;15.57;;;13.03;;
23129;SDS011;11734;51.046;13.778;2022-08-19T03:23:21;14.20;;;12.80;;
23129;SDS011;11734;51.046;13.778;2022-08-19T03:25:51;14.60;;;13.07;;
23129;SDS011;11734;51.046;13.778;2022-08-19T03:28:40;14.13;;;12.53;;
23129;SDS011;11734;51.046;13.778;2022-08-19T03:31:18;14.30;;;12.80;;
23129;SDS011;11734;51.046;13.778;2022-08-19T03:34:09;15.43;;;13.83;;
23129;SDS011;11734;51.046;13.778;2022-08-19T03:36:44;15.83;;;14.23;;
23129;SDS011;11734;51.046;13.778;2022-08-19T03:39:13;15.27;;;13.40;;
23129;SDS011;11734;51.046;13.778;2022-08-19T03:41:41;16.30;;;14.37;;
23129;SDS011;11734;51.046;13.778;2022-08-19T03:44:14;15.20;;;13.60;;
23129;SDS011;11734;51.046;13.778;2022-08-19T03:46:51;14.70;;;12.70;;
23129;SDS011;11734;51.046;13.778;2022-08-19T03:49:22;15.53;;;13.80;;
23129;SDS011;11734;51.046;13.778;2022-08-19T03:51:55;14.40;;;12.77;;
23129;SDS011;11734;51.046;13.778;2022-08-19T03:54:24;13.80;;;12.30;;
23129;SDS011;11734;51.046;13.778;2022-08-19T03:56:52;14.57;;;13.03;;
23129;SDS011;11734;51.046;13.778;2022-08-19T03:59:27;15.87;;;14.17;;
23129;SDS011;11734;51.046;13.778;2022-08-19T04:02:02;15.20;;;13.60;;
23129;SDS011;11734;51.046;13.778;2022-08-19T04:04:38;15.50;;;13.83;;
23129;SDS011;11734;51.046;13.778;2022-08-19T04:07:07;14.77;;;13.13;;
23129;SDS011;11734;51.046;13.778;2022-08-19T04:09:36;14.60;;;13.10;;
23129;SDS011;11734;51.046;13.778;2022-08-19T04:12:04;14.57;;;13.00;;
23129;SDS011;11734;51.046;13.778;2022-08-19T04:14:32;15.40;;;13.80;;
23129;SDS011;11734;51.046;13.778;2022-08-19T04:17:01;15.40;;;13.40;;
23129;SDS011;11734;51.046;13.778;2022-08-19T04:19:31;15.07;;;13.57;;
23129;SDS011;11734;51.046;13.778;2022-08-19T04:22:01;17.60;;;15.27;;
23129;SDS011;11734;51.046;13.778;2022-08-19T04:24:28;16.27;;;13.87;;
23129;SDS011;11734;51.046;13.778;2022-08-19T04:26:56;15.80;;;14.00;;
23129;SDS011;11734;51.046;13.778;2022-08-19T04:29:26;17.77;;;14.60;;
23129;SDS011;11734;51.046;13.778;2022-08-19T04:31:54;15.30;;;13.63;;
23129;SDS011;11734;51.046;13.778;2022-08-19T04:34:23;14.50;;;13.00;;
23129;SDS011;11734;51.046;13.778;2022-08-19T04:36:56;16.03;;;13.80;;
23129;SDS011;11734;51.046;13.778;2022-08-19T04:39:29;16.53;;;14.73;;
23129;SDS011;11734;51.046;13.778;2022-08-19T04:42:17;15.80;;;14.10;;
23129;SDS011;11734;51.046;13.778;2022-08-19T04:45:04;16.03;;;14.33;;
23129;SDS011;11734;51.046;13.778;2022-08-19T04:47:41;14.87;;;13.37;;
23129;SDS011;11734;51.046;13.778;2022-08-19T04:50:24;16.73;;;14.63;;
23129;SDS011;11734;51.046;13.778;2022-08-19T04:52:55;15.23;;;13.63;;
23129;SDS011;11734;51.046;13.778;2022-08-19T04:55:23;16.57;;;14.77;;
23129;SDS011;11734;51.046;13.778;2022-08-19T04:57:52;15.67;;;14.03;;
23129;SDS011;11734;51.046;13.778;2022-08-19T05:00:22;15.77;;;13.63;;
23129;SDS011;11734;51.046;13.778;2022-08-19T05:02:49;17.93;;;14.60;;
23129;SDS011;11734;51.046;13.778;2022-08-19T05:05:17;15.50;;;13.90;;
23129;SDS011;11734;51.046;13.778;2022-08-19T05:07:44;23.23;;;18.37;;
23129;SDS011;11734;51.046;13.778;2022-08-19T05:10:12;20.00;;;17.00;;
23129;SDS011;11734;51.046;13.778;2022-08-19T05:12:40;16.67;;;14.77;;
23129;SDS011;11734;51.046;13.778;2022-08-19T05:15:07;15.87;;;14.27;;
23129;SDS011;11734;51.046;13.778;2022-08-19T05:17:35;16.77;;;14.03;;
23129;SDS011;11734;51.046;13.778;2022-08-19T05:20:06;15.60;;;13.03;;
23129;SDS011;11734;51.046;13.778;2022-08-19T05:22:53;15.83;;;13.33;;
23129;SDS011;11734;51.046;13.778;2022-08-19T05:25:21;16.60;;;13.70;;
23129;SDS011;11734;51.046;13.778;2022-08-19T05:27:49;15.30;;;13.50;;
23129;SDS011;11734;51.046;13.778;2022-08-19T05:30:16;15.10;;;13.57;;
23129;SDS011;11734;51.046;13.778;2022-08-19T05:33:04;15.27;;;13.67;;
23129;SDS011;11734;51.046;13.778;2022-08-19T05:35:32;16.33;;;13.43;;
23129;SDS011;11734;51.046;13.778;2022-08-19T05:38:00;17.03;;;13.60;;
23129;SDS011;11734;51.046;13.778;2022-08-19T05:40:27;15.47;;;13.23;;
23129;SDS011;11734;51.046;13.778;2022-08-19T05:42:55;15.00;;;13.40;;
23129;SDS011;11734;51.046;13.778;2022-08-19T05:45:22;14.57;;;13.07;;
23129;SDS011;11734;51.046;13.778;2022-08-19T05:47:50;16.67;;;13.90;;
23129;SDS011;11734;51.046;13.778;2022-08-19T05:50:18;18.07;;;14.23;;
23129;SDS011;11734;51.046;13.778;2022-08-19T05:52:45;15.03;;;13.43;;
23129;SDS011;11734;51.046;13.778;2022-08-19T05:55:16;16.63;;;14.50;;
23129;SDS011;11734;51.046;13.778;2022-08-19T05:57:46;17.70;;;15.23;;
23129;SDS011;11734;51.046;13.778;2022-08-19T06:00:14;16.70;;;14.40;;
23129;SDS011;11734;51.046;13.778;2022-08-19T06:02:44;16.07;;;13.47;;
23129;SDS011;11734;51.046;13.778;2022-08-19T06:05:12;15.57;;;13.47;;
23129;SDS011;11734;51.046;13.778;2022-08-19T06:07:40;15.50;;;13.73;;
23129;SDS011;11734;51.046;13.778;2022-08-19T06:10:10;15.37;;;13.10;;
23129;SDS011;11734;51.046;13.778;2022-08-19T06:12:38;15.23;;;13.63;;
23129;SDS011;11734;51.046;13.778;2022-08-19T06:15:10;14.57;;;12.77;;
23129;SDS011;11734;51.046;13.778;2022-08-19T06:17:40;14.33;;;12.50;;
23129;SDS011;11734;51.046;13.778;2022-08-19T06:20:11;13.00;;;11.73;;
23129;SDS011;11734;51.046;13.778;2022-08-19T06:22:41;12.27;;;11.07;;
23129;SDS011;11734;51.046;13.778;2022-08-19T06:25:12;11.50;;;10.30;;
23129;SDS011;11734;51.046;13.778;2022-08-19T06:27:41;11.83;;;10.30;;
23129;SDS011;11734;51.046;13.778;2022-08-19T06:30:29;10.30;;;9.20;;
23129;SDS011;11734;51.046;13.778;2022-08-19T06:32:56;10.07;;;9.03;;
23129;SDS011;11734;51.046;13.778;2022-08-19T06:35:23;11.20;;;9.60;;
23129;SDS011;11734;51.046;13.778;2022-08-19T06:37:51;10.43;;;9.43;;
23129;SDS011;11734;51.046;13.778;2022-08-19T06:40:20;9.80;;;8.80;;
23129;SDS011;11734;51.046;13.778;2022-08-19T06:42:47;10.83;;;9.50;;
23129;SDS011;11734;51.046;13.778;2022-08-19T06:45:21;10.53;;;9.47;;
23129;SDS011;11734;51.046;13.778;2022-08-19T06:47:50;12.80;;;10.23;;
23129;SDS011;11734;51.046;13.778;2022-08-19T06:50:22;11.13;;;10.00;;
23129;SDS011;11734;51.046;13.778;2022-08-19T06:52:50;10.27;;;9.13;;
23129;SDS011;11734;51.046;13.778;2022-08-19T06:55:19;11.43;;;9.47;;
23129;SDS011;11734;51.046;13.778;2022-08-19T06:57:46;11.07;;;9.90;;
23129;SDS011;11734;51.046;13.778;2022-08-19T07:00:14;10.60;;;8.80;;
23129;SDS011;11734;51.046;13.778;2022-08-19T07:02:42;11.37;;;10.17;;
23129;SDS011;11734;51.046;13.778;2022-08-19T07:05:21;11.03;;;9.83;;
23129;SDS011;11734;51.046;13.778;2022-08-19T07:07:48;10.87;;;9.67;;
23129;SDS011;11734;51.046;13.778;2022-08-19T07:10:16;11.37;;;10.20;;
23129;SDS011;11734;51.046;13.778;2022-08-19T07:12:44;12.10;;;10.90;;
23129;SDS011;11734;51.046;13.778;2022-08-19T07:15:12;11.20;;;9.90;;
23129;SDS011;11734;51.046;13.778;2022-08-19T07:17:39;13.00;;;10.27;;
23129;SDS011;11734;51.046;13.778;2022-08-19T07:20:07;11.63;;;10.37;;
23129;SDS011;11734;51.046;13.778;2022-08-19T07:22:36;11.30;;;10.00;;
23129;SDS011;11734;51.046;13.778;2022-08-19T07:25:05;11.43;;;10.23;;
23129;SDS011;11734;51.046;13.778;2022-08-19T07:27:34;11.63;;;10.13;;
23129;SDS011;11734;51.046;13.778;2022-08-19T07:30:05;12.47;;;10.63;;
23129;SDS011;11734;51.046;13.778;2022-08-19T07:32:37;12.27;;;10.93;;
23129;SDS011;11734;51.046;13.778;2022-08-19T07:35:06;13.63;;;11.23;;
23129;SDS011;11734;51.046;13.778;2022-08-19T07:37:36;13.63;;;10.97;;
23129;SDS011;11734;51.046;13.778;2022-08-19T07:40:07;13.30;;;10.40;;
23129;SDS011;11734;51.046;13.778;2022-08-19T07:42:35;12.43;;;11.13;;
23129;SDS011;11734;51.046;13.778;2022-08-19T07:45:03;12.83;;;11.13;;
23129;SDS011;11734;51.046;13.778;2022-08-19T07:47:33;12.57;;;10.77;;
23129;SDS011;11734;51.046;13.778;2022-08-19T07:50:16;15.53;;;12.63;;
23129;SDS011;11734;51.046;13.778;2022-08-19T07:52:46;12.93;;;11.53;;
23129;SDS011;11734;51.046;13.778;2022-08-19T07:55:17;14.63;;;12.63;;
23129;SDS011;11734;51.046;13.778;2022-08-19T07:58:07;14.53;;;12.20;;
23129;SDS011;11734;51.046;13.778;2022-08-19T08:00:34;15.40;;;13.00;;
23129;SDS011;11734;51.046;13.778;2022-08-19T08:03:02;13.70;;;11.77;;
23129;SDS011;11734;51.046;13.778;2022-08-19T08:05:29;16.97;;;13.63;;
23129;SDS011;11734;51.046;13.778;2022-08-19T08:08:15;14.43;;;12.33;;
23129;SDS011;11734;51.046;13.778;2022-08-19T08:11:02;15.40;;;13.03;;
23129;SDS011;11734;51.046;13.778;2022-08-19T08:13:33;16.93;;;13.37;;
23129;SDS011;11734;51.046;13.778;2022-08-19T08:16:04;16.87;;;13.03;;
23129;SDS011;11734;51.046;13.778;2022-08-19T08:18:35;16.50;;;13.23;;
23129;SDS011;11734;51.046;13.778;2022-08-19T08:21:07;15.73;;;12.80;;
23129;SDS011;11734;51.046;13.778;2022-08-19T08:23:35;15.63;;;13.07;;
23129;SDS011;11734;51.046;13.778;2022-08-19T08:26:05;14.87;;;12.60;;
23129;SDS011;11734;51.046;13.778;2022-08-19T08:28:32;16.13;;;12.83;;
23129;SDS011;11734;51.046;13.778;2022-08-19T08:30:59;15.67;;;12.43;;
23129;SDS011;11734;51.046;13.778;2022-08-19T08:33:34;15.60;;;12.17;;
23129;SDS011;11734;51.046;13.778;2022-08-19T08:36:05;14.87;;;12.57;;
23129;SDS011;11734;51.046;13.778;2022-08-19T08:38:34;13.40;;;11.97;;
23129;SDS011;11734;51.046;13.778;2022-08-19T08:41:30;15.27;;;11.63;;
23129;SDS011;11734;51.046;13.778;2022-08-19T08:44:03;14.27;;;12.33;;
23129;SDS011;11734;51.046;13.778;2022-08-19T08:46:35;12.80;;;11.40;;
23129;SDS011;11734;51.046;13.778;2022-08-19T08:52:20;12.80;;;11.40;;
23129;SDS011;11734;51.046;13.778;2022-08-19T08:54:58;12.17;;;10.90;;
23129;SDS011;11734;51.046;13.778;2022-08-19T08:57:38;12.90;;;11.03;;
23129;SDS011;11734;51.046;13.778;2022-08-19T09:00:10;11.87;;;10.10;;
23129;SDS011;11734;51.046;13.778;2022-08-19T09:02:48;11.13;;;9.67;;
23129;SDS011;11734;51.046;13.778;2022-08-19T09:05:17;11.07;;;9.63;;
23129;SDS011;11734;51.046;13.778;2022-08-19T09:08:08;10.37;;;9.33;;
23129;SDS011;11734;51.046;13.778;2022-08-19T09:10:46;10.97;;;9.17;;
23129;SDS011;11734;51.046;13.778;2022-08-19T09:16:31;11.00;;;9.77;;
23129;SDS011;11734;51.046;13.778;2022-08-19T09:19:01;12.40;;;10.27;;
23129;SDS011;11734;51.046;13.778;2022-08-19T09:21:31;11.57;;;10.37;;
23129;SDS011;11734;51.046;13.778;2022-08-19T09:24:01;12.20;;;10.27;;
23129;SDS011;11734;51.046;13.778;2022-08-19T09:26:30;11.20;;;9.77;;
23129;SDS011;11734;51.046;13.778;2022-08-19T09:29:18;11.33;;;10.20;;
23129;SDS011;11734;51.046;13.778;2022-08-19T09:31:48;12.07;;;10.83;;
23129;SDS011;11734;51.046;13.778;2022-08-19T09:34:16;11.30;;;10.10;;
23129;SDS011;11734;51.046;13.778;2022-08-19T09:36:48;11.40;;;10.20;;
23129;SDS011;11734;51.046;13.778;2022-08-19T09:39:21;11.83;;;10.63;;
23129;SDS011;11734;51.046;13.778;2022-08-19T09:41:49;11.77;;;10.57;;
23129;SDS011;11734;51.046;13.778;2022-08-19T09:44:16;12.57;;;11.27;;
23129;SDS011;11734;51.046;13.778;2022-08-19T09:46:47;11.57;;;10.37;;
23129;SDS011;11734;51.046;13.778;2022-08-19T09:49:15;10.40;;;9.40;;
23129;SDS011;11734;51.046;13.778;2022-08-19T09:51:46;11.07;;;9.87;;
23129;SDS011;11734;51.046;13.778;2022-08-19T09:54:18;11.27;;;10.07;;
23129;SDS011;11734;51.046;13.778;2022-08-19T09:56:51;11.40;;;10.20;;
23129;SDS011;11734;51.046;13.778;2022-08-19T09:59:23;12.83;;;10.47;;
23129;SDS011;11734;51.046;13.778;2022-08-19T10:01:51;11.40;;;10.20;;
23129;SDS011;11734;51.046;13.778;2022-08-19T10:04:19;10.83;;;9.73;;
23129;SDS011;11734;51.046;13.778;2022-08-19T10:07:10;11.57;;;10.37;;
23129;SDS011;11734;51.046;13.778;2022-08-19T10:09:38;11.23;;;9.60;;
23129;SDS011;11734;51.046;13.778;2022-08-19T10:12:07;10.67;;;9.67;;
23129;SDS011;11734;51.046;13.778;2022-08-19T10:14:36;11.20;;;8.93;;
23129;SDS011;11734;51.046;13.778;2022-08-19T10:17:04;9.97;;;8.57;;
23129;SDS011;11734;51.046;13.778;2022-08-19T10:19:47;10.13;;;8.50;;
23129;SDS011;11734;51.046;13.778;2022-08-19T10:22:21;9.50;;;8.50;;
23129;SDS011;11734;51.046;13.778;2022-08-19T10:24:51;9.10;;;8.20;;
23129;SDS011;11734;51.046;13.778;2022-08-19T10:27:19;9.30;;;8.40;;
23129;SDS011;11734;51.046;13.778;2022-08-19T10:29:47;8.57;;;7.67;;
23129;SDS011;11734;51.046;13.778;2022-08-19T10:32:14;9.20;;;8.30;;
23129;SDS011;11734;51.046;13.778;2022-08-19T10:34:42;7.87;;;7.07;;
23129;SDS011;11734;51.046;13.778;2022-08-19T10:37:15;8.80;;;7.60;;
23129;SDS011;11734;51.046;13.778;2022-08-19T10:39:56;7.83;;;7.13;;
23129;SDS011;11734;51.046;13.778;2022-08-19T10:42:23;7.57;;;6.87;;
23129;SDS011;11734;51.046;13.778;2022-08-19T10:44:51;7.50;;;6.80;;
23129;SDS011;11734;51.046;13.778;2022-08-19T10:47:18;7.30;;;6.60;;
23129;SDS011;11734;51.046;13.778;2022-08-19T10:49:52;7.53;;;6.83;;
23129;SDS011;11734;51.046;13.778;2022-08-19T10:52:40;8.13;;;7.33;;
23129;SDS011;11734;51.046;13.778;2022-08-19T10:55:16;7.93;;;7.13;;
23129;SDS011;11734;51.046;13.778;2022-08-19T10:58:16;7.70;;;6.90;;
23129;SDS011;11734;51.046;13.778;2022-08-19T11:00:52;7.57;;;6.77;;
23129;SDS011;11734;51.046;13.778;2022-08-19T11:03:25;7.07;;;6.37;;
23129;SDS011;11734;51.046;13.778;2022-08-19T11:06:03;7.10;;;6.40;;
23129;SDS011;11734;51.046;13.778;2022-08-19T11:08:34;7.33;;;6.60;;
23129;SDS011;11734;51.046;13.778;2022-08-19T11:11:04;6.80;;;6.20;;
23129;SDS011;11734;51.046;13.778;2022-08-19T11:13:34;6.77;;;6.10;;
23129;SDS011;11734;51.046;13.778;2022-08-19T11:16:08;7.03;;;6.33;;
23129;SDS011;11734;51.046;13.778;2022-08-19T11:18:44;6.77;;;6.07;;
23129;SDS011;11734;51.046;13.778;2022-08-19T11:21:26;6.27;;;5.67;;
23129;SDS011;11734;51.046;13.778;2022-08-19T11:24:00;6.50;;;5.80;;
23129;SDS011;11734;51.046;13.778;2022-08-19T11:26:32;7.23;;;6.63;;
23129;SDS011;11734;51.046;13.778;2022-08-19T11:29:00;7.10;;;6.40;;
23129;SDS011;11734;51.046;13.778;2022-08-19T11:31:30;7.63;;;6.93;;
23129;SDS011;11734;51.046;13.778;2022-08-19T11:34:00;7.40;;;6.70;;
23129;SDS011;11734;51.046;13.778;2022-08-19T11:36:30;8.10;;;7.30;;
23129;SDS011;11734;51.046;13.778;2022-08-19T11:39:01;7.73;;;6.97;;
23129;SDS011;11734;51.046;13.778;2022-08-19T11:41:30;8.10;;;7.30;;
23129;SDS011;11734;51.046;13.778;2022-08-19T11:43:58;8.13;;;7.33;;
23129;SDS011;11734;51.046;13.778;2022-08-19T11:46:26;8.67;;;7.63;;
23129;SDS011;11734;51.046;13.778;2022-08-19T11:48:58;8.27;;;7.47;;
23129;SDS011;11734;51.046;13.778;2022-08-19T11:51:27;9.00;;;8.10;;
23129;SDS011;11734;51.046;13.778;2022-08-19T11:53:56;8.40;;;7.60;;
23129;SDS011;11734;51.046;13.778;2022-08-19T11:56:25;8.47;;;7.57;;
23129;SDS011;11734;51.046;13.778;2022-08-19T11:58:54;8.77;;;7.80;;
23129;SDS011;11734;51.046;13.778;2022-08-19T12:01:23;10.07;;;8.87;;
23129;SDS011;11734;51.046;13.778;2022-08-19T12:03:52;9.27;;;8.37;;
23129;SDS011;11734;51.046;13.778;2022-08-19T12:06:25;9.90;;;8.80;;
23129;SDS011;11734;51.046;13.778;2022-08-19T12:08:56;9.37;;;8.37;;
23129;SDS011;11734;51.046;13.778;2022-08-19T12:11:26;9.57;;;8.63;;
23129;SDS011;11734;51.046;13.778;2022-08-19T12:13:59;10.80;;;8.90;;
23129;SDS011;11734;51.046;13.778;2022-08-19T12:16:28;10.50;;;9.47;;
23129;SDS011;11734;51.046;13.778;2022-08-19T12:18:58;12.20;;;10.57;;
23129;SDS011;11734;51.046;13.778;2022-08-19T12:21:30;11.03;;;9.83;;
23129;SDS011;11734;51.046;13.778;2022-08-19T12:24:00;13.87;;;11.70;;
23129;SDS011;11734;51.046;13.778;2022-08-19T12:26:30;13.30;;;10.80;;
23129;SDS011;11734;51.046;13.778;2022-08-19T12:28:58;13.20;;;11.60;;
23129;SDS011;11734;51.046;13.778;2022-08-19T12:31:27;13.43;;;11.67;;
23129;SDS011;11734;51.046;13.778;2022-08-19T12:33:55;13.77;;;11.47;;
23129;SDS011;11734;51.046;13.778;2022-08-19T12:36:23;14.83;;;12.97;;
23129;SDS011;11734;51.046;13.778;2022-08-19T12:38:51;12.37;;;10.77;;
23129;SDS011;11734;51.046;13.778;2022-08-19T12:41:18;13.83;;;11.90;;
23129;SDS011;11734;51.046;13.778;2022-08-19T12:43:48;14.50;;;11.13;;
23129;SDS011;11734;51.046;13.778;2022-08-19T12:46:17;14.23;;;12.73;;
23129;SDS011;11734;51.046;13.778;2022-08-19T12:48:50;14.03;;;11.63;;
23129;SDS011;11734;51.046;13.778;2022-08-19T12:51:20;15.23;;;12.80;;
23129;SDS011;11734;51.046;13.778;2022-08-19T12:53:47;14.40;;;11.83;;
23129;SDS011;11734;51.046;13.778;2022-08-19T12:56:16;16.90;;;12.70;;
23129;SDS011;11734;51.046;13.778;2022-08-19T12:58:48;14.37;;;12.00;;
23129;SDS011;11734;51.046;13.778;2022-08-19T13:01:18;14.70;;;12.43;;
23129;SDS011;11734;51.046;13.778;2022-08-19T13:03:48;13.50;;;11.20;;
23129;SDS011;11734;51.046;13.778;2022-08-19T13:06:18;15.03;;;12.30;;
23129;SDS011;11734;51.046;13.778;2022-08-19T13:08:46;14.20;;;11.80;;
23129;SDS011;11734;51.046;13.778;2022-08-19T13:11:14;14.07;;;11.47;;
23129;SDS011;11734;51.046;13.778;2022-08-19T13:13:46;13.13;;;11.20;;
23129;SDS011;11734;51.046;13.778;2022-08-19T13:16:17;12.57;;;11.27;;
23129;SDS011;11734;51.046;13.778;2022-08-19T13:18:46;13.60;;;11.80;;
23129;SDS011;11734;51.046;13.778;2022-08-19T13:21:15;14.33;;;11.87;;
23129;SDS011;11734;51.046;13.778;2022-08-19T13:23:46;15.07;;;13.13;;
23129;SDS011;11734;51.046;13.778;2022-08-19T13:26:15;15.27;;;12.13;;
23129;SDS011;11734;51.046;13.778;2022-08-19T13:28:43;14.70;;;12.43;;
23129;SDS011;11734;51.046;13.778;2022-08-19T13:31:30;13.23;;;11.83;;
23129;SDS011;11734;51.046;13.778;2022-08-19T13:34:19;15.27;;;12.33;;
23129;SDS011;11734;51.046;13.778;2022-08-19T13:36:56;15.33;;;12.90;;
23129;SDS011;11734;51.046;13.778;2022-08-19T13:39:24;16.67;;;13.57;;
23129;SDS011;11734;51.046;13.778;2022-08-19T13:41:52;16.27;;;13.60;;
23129;SDS011;11734;51.046;13.778;2022-08-19T13:44:19;15.60;;;13.23;;
23129;SDS011;11734;51.046;13.778;2022-08-19T13:46:48;14.97;;;13.00;;
23129;SDS011;11734;51.046;13.778;2022-08-19T13:49:19;15.27;;;13.67;;
23129;SDS011;11734;51.046;13.778;2022-08-19T13:51:47;16.20;;;13.97;;
23129;SDS011;11734;51.046;13.778;2022-08-19T13:54:15;14.67;;;13.10;;
23129;SDS011;11734;51.046;13.778;2022-08-19T13:56:42;15.83;;;13.23;;
23129;SDS011;11734;51.046;13.778;2022-08-19T13:59:12;16.20;;;13.53;;
23129;SDS011;11734;51.046;13.778;2022-08-19T14:01:39;14.43;;;12.93;;
23129;SDS011;11734;51.046;13.778;2022-08-19T14:04:07;16.63;;;13.53;;
23129;SDS011;11734;51.046;13.778;2022-08-19T14:06:35;17.47;;;13.70;;
23129;SDS011;11734;51.046;13.778;2022-08-19T14:09:03;18.47;;;14.53;;
23129;SDS011;11734;51.046;13.778;2022-08-19T14:11:31;17.70;;;14.90;;
23129;SDS011;11734;51.046;13.778;2022-08-19T14:13:59;17.50;;;15.00;;
23129;SDS011;11734;51.046;13.778;2022-08-19T14:16:26;19.67;;;15.53;;
23129;SDS011;11734;51.046;13.778;2022-08-19T14:18:55;18.17;;;15.30;;
23129;SDS011;11734;51.046;13.778;2022-08-19T14:21:23;17.83;;;15.07;;
23129;SDS011;11734;51.046;13.778;2022-08-19T14:23:52;18.10;;;14.93;;
23129;SDS011;11734;51.046;13.778;2022-08-19T14:26:20;19.20;;;14.63;;
23129;SDS011;11734;51.046;13.778;2022-08-19T14:28:50;18.97;;;14.87;;
23129;SDS011;11734;51.046;13.778;2022-08-19T14:31:19;19.13;;;16.03;;
23129;SDS011;11734;51.046;13.778;2022-08-19T14:33:55;20.87;;;16.07;;
23129;SDS011;11734;51.046;13.778;2022-08-19T14:36:23;18.40;;;15.33;;
23129;SDS011;11734;51.046;13.778;2022-08-19T14:38:50;20.87;;;16.00;;
23129;SDS011;11734;51.046;13.778;2022-08-19T14:41:20;18.57;;;15.20;;
23129;SDS011;11734;51.046;13.778;2022-08-19T14:43:50;18.57;;;15.73;;
23129;SDS011;11734;51.046;13.778;2022-08-19T14:46:20;23.60;;;17.57;;